sensor_id;sensor_type;location;lat;lon;timestamp;temperature;humidity
58951;DHT22;44730;53.158;6.398;2022-12-29T00:01:16;10.00;99.90
58951;DHT22;44730;53.158;6.398;2022-12-29T00:03:42;10.00;99.90
58951;DHT22;44730;53.158;6.398;2022-12-29T00:06:07;10.00;99.90
58951;DHT22;44730;53.158;6.398;2022-12-29T00:08:33;9.90;99.90
58951;DHT22;44730;53.158;6.398;2022-12-29T00:11:06;9.90;99.90
58951;DHT22;44730;53.158;6.398;2022-12-29T00:13:33;9.90;99.90
58951;DHT22;44730;53.158;6.398;2022-12-29T00:16:17;9.90;99.90
58951;DHT22;44730;53.158;6.398;2022-12-29T00:18:43;9.90;99.90
58951;DHT22;44730;53.158;6.398;2022-12-29T00:21:14;10.00;99.90
58951;DHT22;44730;53.158;6.398;2022-12-29T00:23:58;10.00;99.90
58951;DHT22;44730;53.158;6.398;2022-12-29T00:29:46;10.10;99.90
58951;DHT22;44730;53.158;6.398;2022-12-29T00:32:31;10.10;99.90
58951;DHT22;44730;53.158;6.398;2022-12-29T00:35:26;10.20;99.90
58951;DHT22;44730;53.158;6.398;2022-12-29T00:37:54;8.80;99.90
58951;DHT22;44730;53.158;6.398;2022-12-29T00:40:40;10.20;99.90
58951;DHT22;44730;53.158;6.398;2022-12-29T00:43:24;10.20;99.90
58951;DHT22;44730;53.158;6.398;2022-12-29T00:46:08;10.20;99.90
58951;DHT22;44730;53.158;6.398;2022-12-29T00:48:34;10.20;99.90
58951;DHT22;44730;53.158;6.398;2022-12-29T00:51:18;10.20;99.90
58951;DHT22;44730;53.158;6.398;2022-12-29T00:53:43;10.20;99.90
58951;DHT22;44730;53.158;6.398;2022-12-29T00:56:09;10.20;99.90
58951;DHT22;44730;53.158;6.398;2022-12-29T00:58:35;10.20;99.90
58951;DHT22;44730;53.158;6.398;2022-12-29T01:01:05;10.10;99.90
58951;DHT22;44730;53.158;6.398;2022-12-29T01:03:32;10.20;99.90
58951;DHT22;44730;53.158;6.398;2022-12-29T01:06:03;10.20;99.90
58951;DHT22;44730;53.158;6.398;2022-12-29T01:08:29;10.20;99.90
58951;DHT22;44730;53.158;6.398;2022-12-29T01:11:07;10.20;99.90
58951;DHT22;44730;53.158;6.398;2022-12-29T01:13:34;10.30;99.90
58951;DHT22;44730;53.158;6.398;2022-12-29T01:16:00;10.20;99.90
58951;DHT22;44730;53.158;6.398;2022-12-29T01:18:26;10.20;99.90
58951;DHT22;44730;53.158;6.398;2022-12-29T01:20:59;10.20;99.90
58951;DHT22;44730;53.158;6.398;2022-12-29T01:23:25;10.20;99.90
58951;DHT22;44730;53.158;6.398;2022-12-29T01:25:50;10.20;99.90
58951;DHT22;44730;53.158;6.398;2022-12-29T01:28:16;10.20;99.90
58951;DHT22;44730;53.158;6.398;2022-12-29T01:30:42;10.20;99.90
58951;DHT22;44730;53.158;6.398;2022-12-29T01:33:07;10.20;99.90
58951;DHT22;44730;53.158;6.398;2022-12-29T01:35:33;10.20;99.90
58951;DHT22;44730;53.158;6.398;2022-12-29T01:37:59;10.20;99.90
58951;DHT22;44730;53.158;6.398;2022-12-29T01:40:25;10.20;99.90
58951;DHT22;44730;53.158;6.398;2022-12-29T01:42:50;10.20;99.90
58951;DHT22;44730;53.158;6.398;2022-12-29T01:45:17;10.20;99.90
58951;DHT22;44730;53.158;6.398;2022-12-29T01:47:56;10.20;99.90
58951;DHT22;44730;53.158;6.398;2022-12-29T01:50:30;10.10;99.90
58951;DHT22;44730;53.158;6.398;2022-12-29T01:52:58;10.10;99.90
58951;DHT22;44730;53.158;6.398;2022-12-29T01:55:27;10.10;99.90
58951;DHT22;44730;53.158;6.398;2022-12-29T01:57:55;10.00;99.90
58951;DHT22;44730;53.158;6.398;2022-12-29T02:00:22;10.00;99.90
58951;DHT22;44730;53.158;6.398;2022-12-29T02:02:51;10.00;99.90
58951;DHT22;44730;53.158;6.398;2022-12-29T02:05:27;10.00;99.90
58951;DHT22;44730;53.158;6.398;2022-12-29T02:07:54;10.00;99.90
58951;DHT22;44730;53.158;6.398;2022-12-29T02:10:22;9.90;99.90
58951;DHT22;44730;53.158;6.398;2022-12-29T02:12:49;10.00;99.90
58951;DHT22;44730;53.158;6.398;2022-12-29T02:15:15;10.00;99.90
58951;DHT22;44730;53.158;6.398;2022-12-29T02:17:45;10.00;99.90
58951;DHT22;44730;53.158;6.398;2022-12-29T02:35:03;10.10;99.90
58951;DHT22;44730;53.158;6.398;2022-12-29T02:40:43;10.10;99.90
58951;DHT22;44730;53.158;6.398;2022-12-29T02:43:25;10.10;99.90
58951;DHT22;44730;53.158;6.398;2022-12-29T02:46:13;10.10;99.90
58951;DHT22;44730;53.158;6.398;2022-12-29T02:48:45;10.10;99.90
58951;DHT22;44730;53.158;6.398;2022-12-29T02:51:30;10.10;99.90
58951;DHT22;44730;53.158;6.398;2022-12-29T02:53:58;10.10;99.90
58951;DHT22;44730;53.158;6.398;2022-12-29T02:56:42;10.10;99.90
58951;DHT22;44730;53.158;6.398;2022-12-29T02:59:08;10.10;99.90
58951;DHT22;44730;53.158;6.398;2022-12-29T03:05:15;10.10;99.90
58951;DHT22;44730;53.158;6.398;2022-12-29T03:10:33;10.20;99.90
58951;DHT22;44730;53.158;6.398;2022-12-29T03:13:25;10.10;99.90
58951;DHT22;44730;53.158;6.398;2022-12-29T03:16:34;10.20;99.90
58951;DHT22;44730;53.158;6.398;2022-12-29T03:19:21;10.10;99.90
58951;DHT22;44730;53.158;6.398;2022-12-29T03:21:57;10.20;99.90
58951;DHT22;44730;53.158;6.398;2022-12-29T03:24:49;10.20;99.90
58951;DHT22;44730;53.158;6.398;2022-12-29T03:27:22;10.20;99.90
58951;DHT22;44730;53.158;6.398;2022-12-29T03:29:53;10.10;99.90
58951;DHT22;44730;53.158;6.398;2022-12-29T03:32:22;10.10;99.90
58951;DHT22;44730;53.158;6.398;2022-12-29T03:34:49;10.10;99.90
58951;DHT22;44730;53.158;6.398;2022-12-29T03:37:20;10.00;99.90
58951;DHT22;44730;53.158;6.398;2022-12-29T03:39:46;9.90;99.90
58951;DHT22;44730;53.158;6.398;2022-12-29T03:42:19;9.90;99.90
58951;DHT22;44730;53.158;6.398;2022-12-29T03:44:46;9.90;99.90
58951;DHT22;44730;53.158;6.398;2022-12-29T03:47:13;10.60;99.90
58951;DHT22;44730;53.158;6.398;2022-12-29T03:49:40;9.80;99.90
58951;DHT22;44730;53.158;6.398;2022-12-29T03:52:06;9.80;99.90
58951;DHT22;44730;53.158;6.398;2022-12-29T03:54:32;9.80;99.90
58951;DHT22;44730;53.158;6.398;2022-12-29T03:56:58;9.80;99.90
58951;DHT22;44730;53.158;6.398;2022-12-29T03:59:24;9.80;99.90
58951;DHT22;44730;53.158;6.398;2022-12-29T04:01:50;9.70;99.90
58951;DHT22;44730;53.158;6.398;2022-12-29T04:04:16;9.70;99.90
58951;DHT22;44730;53.158;6.398;2022-12-29T04:06:41;9.70;99.90
58951;DHT22;44730;53.158;6.398;2022-12-29T04:09:09;9.70;99.90
58951;DHT22;44730;53.158;6.398;2022-12-29T04:11:34;9.70;99.90
58951;DHT22;44730;53.158;6.398;2022-12-29T04:14:00;9.80;99.90
58951;DHT22;44730;53.158;6.398;2022-12-29T04:16:26;9.80;99.90
58951;DHT22;44730;53.158;6.398;2022-12-29T04:18:52;9.80;99.90
58951;DHT22;44730;53.158;6.398;2022-12-29T04:21:17;9.90;99.90
58951;DHT22;44730;53.158;6.398;2022-12-29T04:23:43;9.80;99.90
58951;DHT22;44730;53.158;6.398;2022-12-29T04:26:09;9.80;99.90
58951;DHT22;44730;53.158;6.398;2022-12-29T04:28:36;9.90;99.90
58951;DHT22;44730;53.158;6.398;2022-12-29T04:31:03;9.90;99.90
58951;DHT22;44730;53.158;6.398;2022-12-29T04:33:29;9.90;99.90
58951;DHT22;44730;53.158;6.398;2022-12-29T04:35:55;9.80;99.90
58951;DHT22;44730;53.158;6.398;2022-12-29T04:38:22;9.80;99.90
58951;DHT22;44730;53.158;6.398;2022-12-29T04:40:48;9.80;99.90
58951;DHT22;44730;53.158;6.398;2022-12-29T04:43:14;9.80;99.90
58951;DHT22;44730;53.158;6.398;2022-12-29T04:45:44;9.80;99.90
58951;DHT22;44730;53.158;6.398;2022-12-29T04:48:10;9.70;99.90
58951;DHT22;44730;53.158;6.398;2022-12-29T04:50:36;9.60;99.90
58951;DHT22;44730;53.158;6.398;2022-12-29T04:53:02;9.60;99.90
58951;DHT22;44730;53.158;6.398;2022-12-29T04:55:28;9.50;99.90
58951;DHT22;44730;53.158;6.398;2022-12-29T04:57:53;9.50;99.90
58951;DHT22;44730;53.158;6.398;2022-12-29T05:00:19;9.50;99.90
58951;DHT22;44730;53.158;6.398;2022-12-29T05:02:45;9.50;99.90
58951;DHT22;44730;53.158;6.398;2022-12-29T05:05:11;9.40;99.90
58951;DHT22;44730;53.158;6.398;2022-12-29T05:07:36;9.40;99.90
58951;DHT22;44730;53.158;6.398;2022-12-29T05:10:03;9.30;99.90
58951;DHT22;44730;53.158;6.398;2022-12-29T05:12:32;9.30;99.90
58951;DHT22;44730;53.158;6.398;2022-12-29T05:14:59;9.30;99.90
58951;DHT22;44730;53.158;6.398;2022-12-29T05:17:25;9.20;99.90
58951;DHT22;44730;53.158;6.398;2022-12-29T05:19:51;9.20;99.90
58951;DHT22;44730;53.158;6.398;2022-12-29T05:22:17;9.20;99.90
58951;DHT22;44730;53.158;6.398;2022-12-29T05:24:43;9.20;99.90
58951;DHT22;44730;53.158;6.398;2022-12-29T05:27:08;9.10;99.90
58951;DHT22;44730;53.158;6.398;2022-12-29T05:29:34;9.00;99.90
58951;DHT22;44730;53.158;6.398;2022-12-29T05:32:00;9.00;99.90
58951;DHT22;44730;53.158;6.398;2022-12-29T05:34:25;9.00;99.90
58951;DHT22;44730;53.158;6.398;2022-12-29T05:36:51;9.00;99.90
58951;DHT22;44730;53.158;6.398;2022-12-29T05:39:17;9.00;99.90
58951;DHT22;44730;53.158;6.398;2022-12-29T05:41:42;9.00;99.90
58951;DHT22;44730;53.158;6.398;2022-12-29T05:44:10;9.00;99.90
58951;DHT22;44730;53.158;6.398;2022-12-29T05:46:36;9.00;99.90
58951;DHT22;44730;53.158;6.398;2022-12-29T05:49:01;9.00;99.90
58951;DHT22;44730;53.158;6.398;2022-12-29T05:51:27;9.00;99.90
58951;DHT22;44730;53.158;6.398;2022-12-29T05:53:53;9.00;99.90
58951;DHT22;44730;53.158;6.398;2022-12-29T05:56:18;9.00;99.90
58951;DHT22;44730;53.158;6.398;2022-12-29T05:58:44;9.10;99.90
58951;DHT22;44730;53.158;6.398;2022-12-29T06:01:10;9.10;99.90
58951;DHT22;44730;53.158;6.398;2022-12-29T06:03:36;9.20;99.90
58951;DHT22;44730;53.158;6.398;2022-12-29T06:06:01;9.20;99.90
58951;DHT22;44730;53.158;6.398;2022-12-29T06:08:27;9.10;99.90
58951;DHT22;44730;53.158;6.398;2022-12-29T06:10:53;9.10;99.90
58951;DHT22;44730;53.158;6.398;2022-12-29T06:13:18;9.10;99.90
58951;DHT22;44730;53.158;6.398;2022-12-29T06:15:44;9.10;99.90
58951;DHT22;44730;53.158;6.398;2022-12-29T06:18:10;9.10;99.90
58951;DHT22;44730;53.158;6.398;2022-12-29T06:20:36;9.10;99.90
58951;DHT22;44730;53.158;6.398;2022-12-29T06:23:01;9.10;99.90
58951;DHT22;44730;53.158;6.398;2022-12-29T06:25:27;9.10;99.90
58951;DHT22;44730;53.158;6.398;2022-12-29T06:27:56;9.10;99.90
58951;DHT22;44730;53.158;6.398;2022-12-29T06:30:21;9.10;99.90
58951;DHT22;44730;53.158;6.398;2022-12-29T06:32:47;9.10;99.90
58951;DHT22;44730;53.158;6.398;2022-12-29T06:35:13;9.10;99.90
58951;DHT22;44730;53.158;6.398;2022-12-29T06:37:39;9.10;99.90
58951;DHT22;44730;53.158;6.398;2022-12-29T06:40:05;9.00;99.90
58951;DHT22;44730;53.158;6.398;2022-12-29T06:42:31;9.10;99.90
58951;DHT22;44730;53.158;6.398;2022-12-29T06:44:57;9.00;99.90
58951;DHT22;44730;53.158;6.398;2022-12-29T06:47:24;9.00;99.90
58951;DHT22;44730;53.158;6.398;2022-12-29T06:49:50;9.00;99.90
58951;DHT22;44730;53.158;6.398;2022-12-29T06:52:15;9.00;99.90
58951;DHT22;44730;53.158;6.398;2022-12-29T06:54:41;8.90;99.90
58951;DHT22;44730;53.158;6.398;2022-12-29T06:57:07;8.90;99.90
58951;DHT22;44730;53.158;6.398;2022-12-29T06:59:33;8.90;99.90
58951;DHT22;44730;53.158;6.398;2022-12-29T07:01:58;8.90;99.90
58951;DHT22;44730;53.158;6.398;2022-12-29T07:04:24;8.80;99.90
58951;DHT22;44730;53.158;6.398;2022-12-29T07:06:50;8.90;99.90
58951;DHT22;44730;53.158;6.398;2022-12-29T07:09:16;8.80;99.90
58951;DHT22;44730;53.158;6.398;2022-12-29T07:11:41;8.80;99.90
58951;DHT22;44730;53.158;6.398;2022-12-29T07:14:07;8.80;99.90
58951;DHT22;44730;53.158;6.398;2022-12-29T07:16:33;8.90;99.90
58951;DHT22;44730;53.158;6.398;2022-12-29T07:18:59;8.90;99.90
58951;DHT22;44730;53.158;6.398;2022-12-29T07:21:25;8.90;99.90
58951;DHT22;44730;53.158;6.398;2022-12-29T07:23:51;9.00;99.90
58951;DHT22;44730;53.158;6.398;2022-12-29T07:26:16;9.00;99.90
58951;DHT22;44730;53.158;6.398;2022-12-29T07:28:43;9.00;99.90
58951;DHT22;44730;53.158;6.398;2022-12-29T07:31:20;9.00;99.90
58951;DHT22;44730;53.158;6.398;2022-12-29T07:33:46;9.00;99.90
58951;DHT22;44730;53.158;6.398;2022-12-29T07:36:13;9.10;99.90
58951;DHT22;44730;53.158;6.398;2022-12-29T07:38:40;9.20;99.90
58951;DHT22;44730;53.158;6.398;2022-12-29T07:41:06;9.20;99.90
58951;DHT22;44730;53.158;6.398;2022-12-29T07:43:31;9.20;99.90
58951;DHT22;44730;53.158;6.398;2022-12-29T07:45:57;9.20;99.90
58951;DHT22;44730;53.158;6.398;2022-12-29T07:48:23;9.20;99.90
58951;DHT22;44730;53.158;6.398;2022-12-29T07:50:48;9.30;99.90
58951;DHT22;44730;53.158;6.398;2022-12-29T07:53:14;9.30;99.90
58951;DHT22;44730;53.158;6.398;2022-12-29T07:55:40;9.30;99.90
58951;DHT22;44730;53.158;6.398;2022-12-29T07:58:06;9.30;99.90
58951;DHT22;44730;53.158;6.398;2022-12-29T08:00:32;9.30;99.90
58951;DHT22;44730;53.158;6.398;2022-12-29T08:02:58;9.20;99.90
58951;DHT22;44730;53.158;6.398;2022-12-29T08:05:24;9.20;99.90
58951;DHT22;44730;53.158;6.398;2022-12-29T08:07:50;9.10;99.90
58951;DHT22;44730;53.158;6.398;2022-12-29T08:10:16;9.10;99.90
58951;DHT22;44730;53.158;6.398;2022-12-29T08:12:42;9.10;99.90
58951;DHT22;44730;53.158;6.398;2022-12-29T08:15:10;9.20;99.90
58951;DHT22;44730;53.158;6.398;2022-12-29T08:17:39;9.20;99.90
58951;DHT22;44730;53.158;6.398;2022-12-29T08:20:05;9.20;99.90
58951;DHT22;44730;53.158;6.398;2022-12-29T08:22:31;9.20;99.90
58951;DHT22;44730;53.158;6.398;2022-12-29T08:24:57;9.20;99.90
58951;DHT22;44730;53.158;6.398;2022-12-29T08:27:22;9.20;99.90
58951;DHT22;44730;53.158;6.398;2022-12-29T08:29:48;9.20;99.90
58951;DHT22;44730;53.158;6.398;2022-12-29T08:32:14;9.20;99.90
58951;DHT22;44730;53.158;6.398;2022-12-29T08:34:40;9.20;99.90
58951;DHT22;44730;53.158;6.398;2022-12-29T08:37:06;9.20;99.90
58951;DHT22;44730;53.158;6.398;2022-12-29T08:39:32;9.10;99.90
58951;DHT22;44730;53.158;6.398;2022-12-29T08:41:58;9.00;99.90
58951;DHT22;44730;53.158;6.398;2022-12-29T08:44:23;9.00;99.90
58951;DHT22;44730;53.158;6.398;2022-12-29T08:46:49;9.00;99.90
58951;DHT22;44730;53.158;6.398;2022-12-29T08:49:15;8.90;99.90
58951;DHT22;44730;53.158;6.398;2022-12-29T08:51:40;8.90;99.90
58951;DHT22;44730;53.158;6.398;2022-12-29T08:54:06;9.00;99.90
58951;DHT22;44730;53.158;6.398;2022-12-29T08:56:32;8.80;99.90
58951;DHT22;44730;53.158;6.398;2022-12-29T08:58:58;8.80;99.90
58951;DHT22;44730;53.158;6.398;2022-12-29T09:01:24;8.90;99.90
58951;DHT22;44730;53.158;6.398;2022-12-29T09:03:49;8.90;99.90
58951;DHT22;44730;53.158;6.398;2022-12-29T09:06:17;8.90;99.90
58951;DHT22;44730;53.158;6.398;2022-12-29T09:08:43;8.90;99.90
58951;DHT22;44730;53.158;6.398;2022-12-29T09:11:15;8.90;99.90
58951;DHT22;44730;53.158;6.398;2022-12-29T09:13:41;8.90;99.90
58951;DHT22;44730;53.158;6.398;2022-12-29T09:16:07;8.90;99.90
58951;DHT22;44730;53.158;6.398;2022-12-29T09:18:33;8.90;99.90
58951;DHT22;44730;53.158;6.398;2022-12-29T09:21:01;8.90;99.90
58951;DHT22;44730;53.158;6.398;2022-12-29T09:23:27;9.00;99.90
58951;DHT22;44730;53.158;6.398;2022-12-29T09:25:53;8.90;99.90
58951;DHT22;44730;53.158;6.398;2022-12-29T09:28:20;8.90;99.90
58951;DHT22;44730;53.158;6.398;2022-12-29T09:30:47;8.90;99.90
58951;DHT22;44730;53.158;6.398;2022-12-29T09:33:13;8.90;99.90
58951;DHT22;44730;53.158;6.398;2022-12-29T09:35:50;8.90;99.90
58951;DHT22;44730;53.158;6.398;2022-12-29T09:38:16;8.90;99.90
58951;DHT22;44730;53.158;6.398;2022-12-29T09:40:44;8.90;99.90
58951;DHT22;44730;53.158;6.398;2022-12-29T09:43:54;8.90;99.90
58951;DHT22;44730;53.158;6.398;2022-12-29T09:46:25;8.90;99.90
58951;DHT22;44730;53.158;6.398;2022-12-29T09:49:00;8.90;99.90
58951;DHT22;44730;53.158;6.398;2022-12-29T09:51:31;8.90;99.90
58951;DHT22;44730;53.158;6.398;2022-12-29T09:54:02;8.90;99.90
58951;DHT22;44730;53.158;6.398;2022-12-29T09:56:29;8.90;99.90
58951;DHT22;44730;53.158;6.398;2022-12-29T10:02:34;8.90;99.90
58951;DHT22;44730;53.158;6.398;2022-12-29T10:05:02;8.90;99.90
58951;DHT22;44730;53.158;6.398;2022-12-29T10:07:45;8.90;99.90
58951;DHT22;44730;53.158;6.398;2022-12-29T10:10:46;8.90;99.90
58951;DHT22;44730;53.158;6.398;2022-12-29T10:16:15;8.70;99.90
58951;DHT22;44730;53.158;6.398;2022-12-29T10:24:12;8.50;99.90
58951;DHT22;44730;53.158;6.398;2022-12-29T10:26:43;8.50;99.90
58951;DHT22;44730;53.158;6.398;2022-12-29T10:29:19;8.40;99.90
58951;DHT22;44730;53.158;6.398;2022-12-29T10:31:49;8.50;99.90
58951;DHT22;44730;53.158;6.398;2022-12-29T10:34:29;8.40;99.90
58951;DHT22;44730;53.158;6.398;2022-12-29T10:37:02;8.40;99.90
58951;DHT22;44730;53.158;6.398;2022-12-29T10:39:33;8.40;99.90
58951;DHT22;44730;53.158;6.398;2022-12-29T10:42:20;8.40;99.90
58951;DHT22;44730;53.158;6.398;2022-12-29T10:44:51;8.40;99.90
58951;DHT22;44730;53.158;6.398;2022-12-29T10:47:24;8.50;99.90
58951;DHT22;44730;53.158;6.398;2022-12-29T10:49:50;7.60;99.90
58951;DHT22;44730;53.158;6.398;2022-12-29T10:52:21;8.50;99.90
58951;DHT22;44730;53.158;6.398;2022-12-29T10:55:01;8.50;99.90
58951;DHT22;44730;53.158;6.398;2022-12-29T10:57:36;8.60;99.90
58951;DHT22;44730;53.158;6.398;2022-12-29T11:00:18;8.70;99.90
58951;DHT22;44730;53.158;6.398;2022-12-29T11:05:37;8.90;99.90
58951;DHT22;44730;53.158;6.398;2022-12-29T11:08:10;8.80;99.90
58951;DHT22;44730;53.158;6.398;2022-12-29T11:10:42;8.90;99.90
58951;DHT22;44730;53.158;6.398;2022-12-29T11:15:46;9.00;99.90
58951;DHT22;44730;53.158;6.398;2022-12-29T11:18:23;9.00;99.90
58951;DHT22;44730;53.158;6.398;2022-12-29T11:20:54;9.00;99.90
58951;DHT22;44730;53.158;6.398;2022-12-29T11:23:33;9.10;99.90
58951;DHT22;44730;53.158;6.398;2022-12-29T11:26:21;9.10;99.90
58951;DHT22;44730;53.158;6.398;2022-12-29T11:31:46;9.20;99.90
58951;DHT22;44730;53.158;6.398;2022-12-29T11:34:33;9.20;99.90
58951;DHT22;44730;53.158;6.398;2022-12-29T11:37:04;9.20;99.90
58951;DHT22;44730;53.158;6.398;2022-12-29T11:42:21;9.30;99.90
58951;DHT22;44730;53.158;6.398;2022-12-29T11:44:49;9.30;99.90
58951;DHT22;44730;53.158;6.398;2022-12-29T11:47:26;9.30;99.90
58951;DHT22;44730;53.158;6.398;2022-12-29T11:49:58;9.40;99.90
58951;DHT22;44730;53.158;6.398;2022-12-29T11:52:28;9.40;99.90
58951;DHT22;44730;53.158;6.398;2022-12-29T11:54:55;9.50;99.90
58951;DHT22;44730;53.158;6.398;2022-12-29T11:57:22;9.50;99.90
58951;DHT22;44730;53.158;6.398;2022-12-29T12:05:06;9.60;99.90
58951;DHT22;44730;53.158;6.398;2022-12-29T12:07:42;9.70;99.90
58951;DHT22;44730;53.158;6.398;2022-12-29T12:10:22;9.70;99.90
58951;DHT22;44730;53.158;6.398;2022-12-29T12:12:58;9.70;99.90
58951;DHT22;44730;53.158;6.398;2022-12-29T12:15:49;9.80;99.90
58951;DHT22;44730;53.158;6.398;2022-12-29T12:18:32;9.80;99.90
58951;DHT22;44730;53.158;6.398;2022-12-29T12:21:15;9.80;99.90
58951;DHT22;44730;53.158;6.398;2022-12-29T12:26:22;9.90;99.90
58951;DHT22;44730;53.158;6.398;2022-12-29T12:28:59;9.70;99.90
58951;DHT22;44730;53.158;6.398;2022-12-29T12:34:25;9.60;99.90
58951;DHT22;44730;53.158;6.398;2022-12-29T12:43:24;9.50;99.90
58951;DHT22;44730;53.158;6.398;2022-12-29T12:54:17;9.50;99.90
58951;DHT22;44730;53.158;6.398;2022-12-29T13:13:01;9.40;99.90
58951;DHT22;44730;53.158;6.398;2022-12-29T13:18:34;9.40;99.90
58951;DHT22;44730;53.158;6.398;2022-12-29T13:21:10;9.40;99.90
58951;DHT22;44730;53.158;6.398;2022-12-29T13:23:53;9.40;99.90
58951;DHT22;44730;53.158;6.398;2022-12-29T13:26:46;9.40;99.90
58951;DHT22;44730;53.158;6.398;2022-12-29T13:37:33;9.30;99.90
58951;DHT22;44730;53.158;6.398;2022-12-29T13:40:16;9.30;99.90
58951;DHT22;44730;53.158;6.398;2022-12-29T13:42:43;9.30;99.90
58951;DHT22;44730;53.158;6.398;2022-12-29T13:45:16;9.30;99.90
58951;DHT22;44730;53.158;6.398;2022-12-29T13:50:24;9.40;99.90
58951;DHT22;44730;53.158;6.398;2022-12-29T13:55:55;9.50;99.90
58951;DHT22;44730;53.158;6.398;2022-12-29T13:58:37;9.50;99.90
58951;DHT22;44730;53.158;6.398;2022-12-29T14:01:17;9.40;99.90
58951;DHT22;44730;53.158;6.398;2022-12-29T14:08:45;9.20;99.90
58951;DHT22;44730;53.158;6.398;2022-12-29T14:11:12;9.00;99.90
58951;DHT22;44730;53.158;6.398;2022-12-29T14:13:42;8.90;99.90
58951;DHT22;44730;53.158;6.398;2022-12-29T14:16:25;8.90;99.90
58951;DHT22;44730;53.158;6.398;2022-12-29T14:18:52;8.80;99.90
58951;DHT22;44730;53.158;6.398;2022-12-29T14:21:21;8.70;99.90
58951;DHT22;44730;53.158;6.398;2022-12-29T14:23:50;8.70;99.90
58951;DHT22;44730;53.158;6.398;2022-12-29T14:28:48;8.60;99.90
58951;DHT22;44730;53.158;6.398;2022-12-29T14:33:39;8.60;99.90
58951;DHT22;44730;53.158;6.398;2022-12-29T14:36:25;8.50;99.90
58951;DHT22;44730;53.158;6.398;2022-12-29T14:38:52;8.50;99.90
58951;DHT22;44730;53.158;6.398;2022-12-29T14:41:38;8.50;99.90
58951;DHT22;44730;53.158;6.398;2022-12-29T14:49:25;8.40;99.90
58951;DHT22;44730;53.158;6.398;2022-12-29T14:51:54;8.40;99.90
58951;DHT22;44730;53.158;6.398;2022-12-29T14:57:14;8.30;99.90
58951;DHT22;44730;53.158;6.398;2022-12-29T14:59:40;8.30;99.90
58951;DHT22;44730;53.158;6.398;2022-12-29T15:02:17;8.20;99.90
58951;DHT22;44730;53.158;6.398;2022-12-29T15:04:44;8.20;99.90
58951;DHT22;44730;53.158;6.398;2022-12-29T15:07:12;8.20;99.90
58951;DHT22;44730;53.158;6.398;2022-12-29T15:09:47;8.20;99.90
58951;DHT22;44730;53.158;6.398;2022-12-29T15:12:41;8.20;99.90
58951;DHT22;44730;53.158;6.398;2022-12-29T15:15:37;8.10;99.90
58951;DHT22;44730;53.158;6.398;2022-12-29T15:18:26;8.00;99.90
58951;DHT22;44730;53.158;6.398;2022-12-29T15:21:04;8.00;99.90
58951;DHT22;44730;53.158;6.398;2022-12-29T15:23:32;7.90;99.90
58951;DHT22;44730;53.158;6.398;2022-12-29T15:26:07;7.90;99.90
58951;DHT22;44730;53.158;6.398;2022-12-29T15:28:39;7.90;99.90
58951;DHT22;44730;53.158;6.398;2022-12-29T15:31:11;7.80;99.90
58951;DHT22;44730;53.158;6.398;2022-12-29T15:33:40;7.80;99.90
58951;DHT22;44730;53.158;6.398;2022-12-29T15:36:16;7.80;99.90
58951;DHT22;44730;53.158;6.398;2022-12-29T15:38:44;7.80;99.90
58951;DHT22;44730;53.158;6.398;2022-12-29T15:46:30;7.80;99.90
58951;DHT22;44730;53.158;6.398;2022-12-29T15:48:56;7.80;99.90
58951;DHT22;44730;53.158;6.398;2022-12-29T15:51:33;7.80;99.90
58951;DHT22;44730;53.158;6.398;2022-12-29T15:53:59;7.80;99.90
58951;DHT22;44730;53.158;6.398;2022-12-29T15:56:28;7.80;99.90
58951;DHT22;44730;53.158;6.398;2022-12-29T15:58:54;7.70;99.90
58951;DHT22;44730;53.158;6.398;2022-12-29T16:01:24;7.80;99.90
58951;DHT22;44730;53.158;6.398;2022-12-29T16:03:53;7.80;99.90
58951;DHT22;44730;53.158;6.398;2022-12-29T16:09:02;7.80;99.90
58951;DHT22;44730;53.158;6.398;2022-12-29T16:11:35;7.90;99.90
58951;DHT22;44730;53.158;6.398;2022-12-29T16:14:16;7.90;99.90
58951;DHT22;44730;53.158;6.398;2022-12-29T16:16:44;7.80;99.90
58951;DHT22;44730;53.158;6.398;2022-12-29T16:19:34;7.70;99.90
58951;DHT22;44730;53.158;6.398;2022-12-29T16:22:00;7.70;99.90
58951;DHT22;44730;53.158;6.398;2022-12-29T16:24:31;7.60;99.90
58951;DHT22;44730;53.158;6.398;2022-12-29T16:27:02;7.50;99.90
58951;DHT22;44730;53.158;6.398;2022-12-29T16:29:32;7.30;99.90
58951;DHT22;44730;53.158;6.398;2022-12-29T16:31:59;7.20;99.90
58951;DHT22;44730;53.158;6.398;2022-12-29T16:37:24;7.10;99.90
58951;DHT22;44730;53.158;6.398;2022-12-29T16:39:51;7.10;99.90
58951;DHT22;44730;53.158;6.398;2022-12-29T16:42:43;7.00;99.90
58951;DHT22;44730;53.158;6.398;2022-12-29T16:50:38;6.90;99.90
58951;DHT22;44730;53.158;6.398;2022-12-29T16:53:05;6.80;99.90
58951;DHT22;44730;53.158;6.398;2022-12-29T16:55:32;5.60;99.90
58951;DHT22;44730;53.158;6.398;2022-12-29T16:57:59;6.80;99.90
58951;DHT22;44730;53.158;6.398;2022-12-29T17:00:35;5.30;99.90
58951;DHT22;44730;53.158;6.398;2022-12-29T17:03:01;6.80;99.90
58951;DHT22;44730;53.158;6.398;2022-12-29T17:05:28;6.80;99.90
58951;DHT22;44730;53.158;6.398;2022-12-29T17:07:53;6.80;99.90
58951;DHT22;44730;53.158;6.398;2022-12-29T17:10:20;6.80;99.90
58951;DHT22;44730;53.158;6.398;2022-12-29T17:13:07;6.70;99.90
58951;DHT22;44730;53.158;6.398;2022-12-29T17:15:33;6.80;99.90
58951;DHT22;44730;53.158;6.398;2022-12-29T17:18:00;6.80;99.90
58951;DHT22;44730;53.158;6.398;2022-12-29T17:20:28;6.90;99.90
58951;DHT22;44730;53.158;6.398;2022-12-29T17:22:54;6.90;99.90
58951;DHT22;44730;53.158;6.398;2022-12-29T17:25:29;7.00;99.90
58951;DHT22;44730;53.158;6.398;2022-12-29T17:30:25;7.10;99.90
58951;DHT22;44730;53.158;6.398;2022-12-29T17:33:03;7.20;99.90
58951;DHT22;44730;53.158;6.398;2022-12-29T17:35:30;7.20;99.90
58951;DHT22;44730;53.158;6.398;2022-12-29T17:37:55;7.20;99.90
58951;DHT22;44730;53.158;6.398;2022-12-29T17:40:24;7.30;99.90
58951;DHT22;44730;53.158;6.398;2022-12-29T17:42:56;7.60;99.90
58951;DHT22;44730;53.158;6.398;2022-12-29T17:45:26;7.30;99.90
58951;DHT22;44730;53.158;6.398;2022-12-29T17:47:53;7.30;99.90
58951;DHT22;44730;53.158;6.398;2022-12-29T17:50:23;7.30;99.90
58951;DHT22;44730;53.158;6.398;2022-12-29T17:52:57;7.30;99.90
58951;DHT22;44730;53.158;6.398;2022-12-29T17:55:23;7.30;99.90
58951;DHT22;44730;53.158;6.398;2022-12-29T17:57:50;7.30;99.90
58951;DHT22;44730;53.158;6.398;2022-12-29T18:00:29;7.30;99.90
58951;DHT22;44730;53.158;6.398;2022-12-29T18:02:56;7.30;99.90
58951;DHT22;44730;53.158;6.398;2022-12-29T18:05:29;7.30;99.90
58951;DHT22;44730;53.158;6.398;2022-12-29T18:07:58;7.20;99.90
58951;DHT22;44730;53.158;6.398;2022-12-29T18:10:26;7.20;99.90
58951;DHT22;44730;53.158;6.398;2022-12-29T18:12:58;7.70;99.90
58951;DHT22;44730;53.158;6.398;2022-12-29T18:15:26;7.20;99.90
58951;DHT22;44730;53.158;6.398;2022-12-29T18:18:10;7.30;99.90
58951;DHT22;44730;53.158;6.398;2022-12-29T18:20:36;7.20;99.90
58951;DHT22;44730;53.158;6.398;2022-12-29T18:23:02;7.20;99.90
58951;DHT22;44730;53.158;6.398;2022-12-29T18:25:41;7.20;99.90
58951;DHT22;44730;53.158;6.398;2022-12-29T18:28:08;7.20;99.90